Time;durP1;ratioP1;P1;durP2;ratioP2;P2;SDS_P1;SDS_P2;PMS_P1;PMS_P2;Temp;Humidity;BMP_temperature;BMP_pressure;BME280_temperature;BME280_humidity;BME280_pressure;Samples;Min_cycle;Max_cycle;Signal;HPM_P1;HPM_P2
2021/01/22 00:00:55;;;;;;;3.20;2.72;;;18.60;66.90;;;;;;5092467;28;20377;-44
2021/01/22 00:03:21;;;;;;;2.55;2.45;;;18.60;66.90;;;;;;5093519;28;20036;-43
2021/01/22 00:05:48;;;;;;;2.75;2.55;;;18.60;66.80;;;;;;5092166;28;20073;-44
2021/01/22 00:08:13;;;;;;;2.60;2.40;;;18.60;66.80;;;;;;5092937;28;20020;-44
2021/01/22 00:10:39;;;;;;;2.75;2.33;;;18.60;66.80;;;;;;5091849;28;20582;-45
2021/01/22 00:13:04;;;;;;;2.65;2.45;;;18.50;66.70;;;;;;5092165;28;20571;-42
2021/01/22 00:15:30;;;;;;;2.50;2.30;;;18.50;66.80;;;;;;5094227;28;20028;-45
2021/01/22 00:17:57;;;;;;;3.00;2.50;;;18.50;66.80;;;;;;5091373;28;20401;-43
2021/01/22 00:20:22;;;;;;;2.65;2.45;;;18.50;66.70;;;;;;5090707;28;20019;-44
2021/01/22 00:22:48;;;;;;;2.33;2.13;;;18.50;66.80;;;;;;5091780;28;20040;-44
2021/01/22 00:25:13;;;;;;;2.47;2.28;;;18.50;66.70;;;;;;5091606;28;20035;-43
2021/01/22 00:27:39;;;;;;;1.90;1.80;;;18.50;66.60;;;;;;5092376;28;20547;-43
2021/01/22 00:30:05;;;;;;;1.85;1.75;;;18.60;66.60;;;;;;5092275;28;20032;-44
2021/01/22 00:32:31;;;;;;;2.75;2.08;;;18.50;66.50;;;;;;5091255;28;20031;-45
2021/01/22 00:34:56;;;;;;;2.13;1.92;;;18.60;66.50;;;;;;5090617;28;20063;-43
2021/01/22 00:37:22;;;;;;;1.92;1.75;;;18.50;66.50;;;;;;5091666;28;20092;-45
2021/01/22 00:39:47;;;;;;;2.00;1.90;;;18.50;66.60;;;;;;5092242;28;20020;-43
2021/01/22 00:42:13;;;;;;;2.17;2.08;;;18.50;66.60;;;;;;5091125;28;20044;-43
2021/01/22 00:44:40;;;;;;;2.70;1.90;;;18.50;66.70;;;;;;5091374;28;20027;-43
2021/01/22 00:47:06;;;;;;;1.83;1.73;;;18.50;66.60;;;;;;5090365;28;20040;-43
2021/01/22 00:49:31;;;;;;;1.73;1.63;;;18.40;66.70;;;;;;5091737;28;20503;-45
2021/01/22 00:51:57;;;;;;;1.90;1.80;;;18.50;66.80;;;;;;5091510;28;20033;-45
2021/01/22 00:54:23;;;;;;;2.00;1.90;;;18.40;66.60;;;;;;5093316;28;20024;-43
2021/01/22 00:56:48;;;;;;;1.92;1.83;;;18.40;66.60;;;;;;5089446;28;20024;-43
2021/01/22 00:59:14;;;;;;;1.65;1.55;;;18.40;66.70;;;;;;5089995;28;20082;-43
2021/01/22 01:01:39;;;;;;;1.88;1.73;;;18.40;66.90;;;;;;5090786;28;20060;-43
2021/01/22 01:04:05;;;;;;;1.77;1.67;;;18.40;66.50;;;;;;5091137;28;20028;-45
2021/01/22 01:06:31;;;;;;;1.70;1.60;;;18.40;66.70;;;;;;5092475;28;20069;-44
2021/01/22 01:08:56;;;;;;;1.90;1.80;;;18.40;66.70;;;;;;5090845;28;20028;-47
2021/01/22 01:11:22;;;;;;;2.35;2.05;;;18.40;66.70;;;;;;5090553;28;20020;-45
2021/01/22 01:13:47;;;;;;;2.10;2.00;;;18.40;66.60;;;;;;5090714;28;20040;-43
2021/01/22 01:16:13;;;;;;;1.52;1.42;;;18.40;66.70;;;;;;5090931;28;20020;-43
2021/01/22 01:18:38;;;;;;;1.88;1.77;;;18.40;66.70;;;;;;5092518;28;20464;-42
2021/01/22 01:21:04;;;;;;;2.00;1.77;;;18.40;66.70;;;;;;5089565;28;20434;-43
2021/01/22 01:23:30;;;;;;;1.90;1.80;;;18.40;66.70;;;;;;5090508;28;20035;-45
2021/01/22 01:25:55;;;;;;;2.03;1.92;;;18.40;66.70;;;;;;5089321;28;20099;-43
2021/01/22 01:28:21;;;;;;;1.52;1.42;;;18.40;66.80;;;;;;5090927;28;20512;-45
2021/01/22 01:30:47;;;;;;;2.00;1.90;;;18.40;66.80;;;;;;5091492;28;20117;-44
2021/01/22 01:33:12;;;;;;;1.60;1.50;;;18.40;66.70;;;;;;5091841;28;20150;-45
2021/01/22 01:35:38;;;;;;;1.40;1.30;;;18.40;66.70;;;;;;5089243;28;20031;-45
2021/01/22 01:38:03;;;;;;;2.10;1.60;;;18.40;66.60;;;;;;5088908;28;20450;-43
2021/01/22 01:40:29;;;;;;;1.80;1.70;;;18.40;66.50;;;;;;5090105;28;20038;-45
2021/01/22 01:42:54;;;;;;;1.65;1.55;;;18.40;66.60;;;;;;5090547;28;20040;-45
2021/01/22 01:45:20;;;;;;;1.60;1.50;;;18.40;66.50;;;;;;5092536;28;20091;-43
2021/01/22 01:47:46;;;;;;;2.13;1.33;;;18.40;66.60;;;;;;5090065;28;20032;-43
2021/01/22 01:50:12;;;;;;;1.50;1.40;;;18.40;66.50;;;;;;5090524;28;20016;-43
2021/01/22 01:52:38;;;;;;;2.08;1.80;;;18.40;66.60;;;;;;5089143;28;20032;-43
2021/01/22 01:55:05;;;;;;;1.40;1.30;;;18.40;66.60;;;;;;5088432;28;20506;-43
2021/01/22 01:57:31;;;;;;;1.17;1.17;;;18.40;66.60;;;;;;5092005;28;20048;-45
2021/01/22 01:59:58;;;;;;;1.80;1.30;;;18.30;66.60;;;;;;5087328;28;20450;-43
2021/01/22 02:02:24;;;;;;;1.30;1.20;;;18.40;66.80;;;;;;5088403;28;20085;-45
2021/01/22 02:04:50;;;;;;;1.60;1.48;;;18.30;66.60;;;;;;5071085;28;20031;-43
2021/01/22 02:07:15;;;;;;;1.42;1.33;;;18.40;66.60;;;;;;5088866;28;20028;-43
2021/01/22 02:09:41;;;;;;;1.35;1.27;;;18.30;66.70;;;;;;5091777;28;20024;-45
2021/01/22 02:12:07;;;;;;;1.40;1.30;;;18.40;66.70;;;;;;5089210;28;20055;-45
2021/01/22 02:14:33;;;;;;;1.70;1.60;;;18.40;66.70;;;;;;5087282;28;20061;-43
2021/01/22 02:16:58;;;;;;;1.38;1.38;;;18.30;66.70;;;;;;5071420;28;20035;-44
2021/01/22 02:19:43;;;;;;;1.48;1.38;;;18.30;66.70;;;;;;5093002;28;20173;-45
2021/01/22 02:22:08;;;;;;;2.83;1.30;;;18.30;66.70;;;;;;5078304;28;20045;-46
2021/01/22 02:24:34;;;;;;;1.58;1.48;;;18.30;66.70;;;;;;5096387;28;20157;-45
2021/01/22 02:27:04;;;;;;;1.40;1.15;;;18.30;66.70;;;;;;5075752;28;20039;-43
2021/01/22 02:29:31;;;;;;;1.30;1.30;;;18.30;66.70;;;;;;5076122;28;20028;-45
2021/01/22 02:31:57;;;;;;;1.08;1.05;;;18.30;66.70;;;;;;5075888;28;20062;-44
2021/01/22 02:34:26;;;;;;;1.88;1.50;;;18.30;66.70;;;;;;5076206;28;20024;-44
2021/01/22 02:36:55;;;;;;;1.10;1.02;;;18.30;66.70;;;;;;5076564;28;20024;-43
2021/01/22 02:39:21;;;;;;;1.13;1.10;;;18.30;66.70;;;;;;5076717;28;20031;-45
2021/01/22 02:41:46;;;;;;;1.00;1.00;;;18.30;66.80;;;;;;5092283;28;20128;-45
2021/01/22 02:44:12;;;;;;;1.35;1.27;;;18.30;66.70;;;;;;5091566;28;20111;-45
2021/01/22 02:46:38;;;;;;;1.00;1.00;;;18.30;66.70;;;;;;5075185;28;20052;-43
2021/01/22 02:49:03;;;;;;;1.00;1.00;;;18.30;66.70;;;;;;5092400;28;20024;-44
2021/01/22 02:51:29;;;;;;;1.00;1.00;;;18.30;66.70;;;;;;5095636;28;20020;-44
2021/01/22 02:53:55;;;;;;;1.10;1.10;;;18.30;66.60;;;;;;5091961;28;20438;-45
2021/01/22 02:56:29;;;;;;;0.80;0.80;;;18.30;66.60;;;;;;5092168;28;20020;-43
2021/01/22 02:59:10;;;;;;;;;;;18.30;66.60;;;;;;5094120;28;20056;-45
2021/01/22 03:01:44;;;;;;;1.02;1.02;;;18.30;66.60;;;;;;5092037;28;19959;-45
2021/01/22 03:04:11;;;;;;;1.10;1.00;;;18.30;66.60;;;;;;5077878;28;20021;-45
2021/01/22 03:06:40;;;;;;;1.15;1.15;;;18.20;66.60;;;;;;5077534;28;20024;-43
2021/01/22 03:09:05;;;;;;;1.10;1.10;;;18.20;66.70;;;;;;5076000;28;20028;-43
2021/01/22 03:11:31;;;;;;;0.85;0.85;;;18.20;66.70;;;;;;5091911;28;20024;-43
2021/01/22 03:13:57;;;;;;;1.08;1.00;;;18.30;66.70;;;;;;5075123;28;20105;-43
2021/01/22 03:16:22;;;;;;;0.70;0.70;;;18.30;66.70;;;;;;5074924;28;20036;-43
2021/01/22 03:18:58;;;;;;;0.80;0.80;;;18.30;66.70;;;;;;5075956;28;20039;-43
2021/01/22 03:21:24;;;;;;;1.10;1.10;;;18.20;66.70;;;;;;5093748;28;20028;-45
2021/01/22 03:23:49;;;;;;;1.00;0.90;;;18.20;66.70;;;;;;5091737;28;20053;-45
2021/01/22 03:26:15;;;;;;;1.00;1.00;;;18.20;66.60;;;;;;5092704;28;20027;-43
2021/01/22 03:28:40;;;;;;;0.88;0.80;;;18.20;66.60;;;;;;5092900;28;20077;-45
2021/01/22 03:31:06;;;;;;;0.98;0.98;;;18.20;66.70;;;;;;5076041;28;20032;-43
2021/01/22 03:33:31;;;;;;;0.65;0.65;;;18.20;66.70;;;;;;5093607;28;20035;-45
2021/01/22 03:35:57;;;;;;;1.35;1.00;;;18.20;66.50;;;;;;5091568;28;20028;-45
2021/01/22 03:38:23;;;;;;;0.90;0.90;;;18.30;66.60;;;;;;5092863;28;20120;-43
2021/01/22 03:40:48;;;;;;;0.90;0.90;;;18.20;66.50;;;;;;5092506;28;20051;-44
2021/01/22 03:43:15;;;;;;;0.90;0.90;;;18.20;66.50;;;;;;5091414;28;20115;-44
2021/01/22 03:45:40;;;;;;;0.80;0.80;;;18.20;66.50;;;;;;5094274;28;20020;-43
2021/01/22 03:48:06;;;;;;;0.93;0.93;;;18.20;66.50;;;;;;5091994;28;20032;-44
2021/01/22 03:50:32;;;;;;;0.77;0.77;;;18.30;66.50;;;;;;5092563;28;20031;-43
2021/01/22 03:52:57;;;;;;;1.00;0.85;;;18.20;66.40;;;;;;5092570;28;20059;-43
2021/01/22 03:55:23;;;;;;;0.80;0.80;;;18.20;66.40;;;;;;5090755;28;20020;-45
2021/01/22 03:57:48;;;;;;;0.75;0.75;;;18.20;66.40;;;;;;5093073;28;20020;-43
2021/01/22 04:00:14;;;;;;;0.60;0.60;;;18.20;66.50;;;;;;5093960;28;20111;-43
2021/01/22 04:02:40;;;;;;;0.55;0.50;;;18.20;66.30;;;;;;5091103;28;20036;-43
2021/01/22 04:05:06;;;;;;;0.93;0.85;;;18.20;66.40;;;;;;5091103;28;20405;-43
2021/01/22 04:07:32;;;;;;;1.77;0.80;;;18.20;66.50;;;;;;5091109;28;20481;-45
2021/01/22 04:09:57;;;;;;;0.80;0.80;;;18.20;66.50;;;;;;5092580;28;20029;-44
2021/01/22 04:12:23;;;;;;;0.90;0.90;;;18.20;66.50;;;;;;5093317;28;20105;-43
2021/01/22 04:14:48;;;;;;;0.80;0.80;;;18.20;66.50;;;;;;5090217;28;20032;-45
2021/01/22 04:17:14;;;;;;;0.75;0.75;;;18.20;66.50;;;;;;5091200;28;20024;-45
2021/01/22 04:19:39;;;;;;;0.77;0.77;;;18.20;66.40;;;;;;5092281;28;20028;-44
2021/01/22 04:22:05;;;;;;;0.70;0.70;;;18.20;66.50;;;;;;5092022;28;20457;-43
2021/01/22 04:24:30;;;;;;;0.80;0.80;;;18.20;66.40;;;;;;5093816;28;20114;-43
2021/01/22 04:26:56;;;;;;;1.20;0.80;;;18.20;66.60;;;;;;5091361;28;20035;-44
2021/01/22 04:29:21;;;;;;;0.80;0.80;;;18.20;66.50;;;;;;5091847;28;20493;-39
2021/01/22 04:31:47;;;;;;;0.93;0.90;;;18.20;66.50;;;;;;5091237;28;20089;-43
2021/01/22 04:34:13;;;;;;;1.15;0.60;;;18.20;66.50;;;;;;5090673;28;20032;-43
2021/01/22 04:36:38;;;;;;;0.68;0.68;;;18.20;66.50;;;;;;5093720;28;20034;-42
2021/01/22 04:39:04;;;;;;;0.60;0.60;;;18.20;66.50;;;;;;5091902;28;20024;-46
2021/01/22 04:41:30;;;;;;;0.60;0.60;;;18.10;66.50;;;;;;5089566;28;20063;-47
2021/01/22 04:43:56;;;;;;;0.88;0.88;;;18.20;66.50;;;;;;5091601;28;20062;-44
2021/01/22 04:46:21;;;;;;;0.63;0.63;;;18.20;66.50;;;;;;5091191;28;20438;-42
2021/01/22 04:48:48;;;;;;;0.50;0.50;;;18.20;66.50;;;;;;5091378;28;20085;-41
2021/01/22 04:51:13;;;;;;;0.60;0.60;;;18.20;66.50;;;;;;5091232;28;20020;-42
2021/01/22 04:53:39;;;;;;;1.95;0.90;;;18.20;66.70;;;;;;5072065;28;20032;-40
2021/01/22 04:56:05;;;;;;;0.60;0.60;;;18.20;66.60;;;;;;5089763;28;20529;-43
2021/01/22 04:58:36;;;;;;;0.60;0.60;;;18.10;66.60;;;;;;5073425;28;20501;-41
2021/01/22 05:01:02;;;;;;;0.80;0.80;;;18.20;66.70;;;;;;5073111;28;20020;-43
2021/01/22 05:03:28;;;;;;;0.60;0.60;;;18.20;66.60;;;;;;5074675;28;20028;-41
2021/01/22 05:05:57;;;;;;;0.60;0.60;;;18.10;66.50;;;;;;5073305;28;20036;-41
2021/01/22 05:08:23;;;;;;;1.02;0.57;;;18.10;66.40;;;;;;5091079;28;20501;-44
2021/01/22 05:10:49;;;;;;;0.47;0.47;;;18.10;66.70;;;;;;5089929;28;20118;-42
2021/01/22 05:13:14;;;;;;;0.57;0.57;;;18.20;66.50;;;;;;5089592;28;20537;-42
2021/01/22 05:15:40;;;;;;;0.88;0.88;;;18.10;66.40;;;;;;5092508;28;20162;-42
2021/01/22 05:18:06;;;;;;;0.80;0.80;;;18.10;66.50;;;;;;5090601;28;20046;-41
2021/01/22 05:20:35;;;;;;;0.50;0.50;;;18.20;66.50;;;;;;5089299;28;20035;-43
2021/01/22 05:23:05;;;;;;;1.58;0.50;;;18.10;66.50;;;;;;5090876;28;20838;-43
2021/01/22 05:25:31;;;;;;;0.63;0.60;;;18.10;66.40;;;;;;5089454;28;20040;-42
2021/01/22 05:27:57;;;;;;;0.60;0.60;;;18.10;66.50;;;;;;5091067;28;20392;-42
2021/01/22 05:30:26;;;;;;;0.73;0.73;;;18.10;66.60;;;;;;5091038;28;20046;-44
2021/01/22 05:32:52;;;;;;;0.50;0.50;;;18.10;66.50;;;;;;5089981;28;20030;-43
2021/01/22 05:35:31;;;;;;;0.52;0.52;;;18.10;66.30;;;;;;5090568;28;20481;-42
2021/01/22 05:37:57;;;;;;;0.73;0.73;;;18.10;66.50;;;;;;5090477;28;20032;-44
2021/01/22 05:40:23;;;;;;;0.75;0.75;;;18.10;66.40;;;;;;5090530;28;20039;-41
2021/01/22 05:42:52;;;;;;;0.75;0.75;;;18.10;66.30;;;;;;5091098;28;20032;-44
2021/01/22 05:45:38;;;;;;;0.60;0.60;;;18.10;66.20;;;;;;5092051;28;20028;-43
2021/01/22 05:48:05;;;;;;;0.88;0.70;;;18.10;66.30;;;;;;5090251;28;20048;-45
2021/01/22 05:50:51;;;;;;;0.60;0.60;;;18.10;66.40;;;;;;5090348;28;20051;-45
2021/01/22 05:53:17;;;;;;;1.10;0.63;;;18.10;66.60;;;;;;5085057;28;20030;-43
2021/01/22 05:55:43;;;;;;;0.60;0.60;;;18.10;67.20;;;;;;5082680;28;20028;-43
2021/01/22 05:58:09;;;;;;;1.58;0.60;;;18.10;67.20;;;;;;5073774;28;20077;-43
2021/01/22 06:00:34;;;;;;;0.47;0.47;;;18.20;68.20;;;;;;5080110;28;20505;-45
2021/01/22 06:03:00;;;;;;;1.00;0.82;;;18.20;68.00;;;;;;5087824;28;20075;-43
2021/01/22 06:05:28;;;;;;;0.77;0.77;;;18.20;68.50;;;;;;5088675;28;20036;-43
2021/01/22 06:08:09;;;;;;;0.50;0.50;;;18.20;69.10;;;;;;5083019;28;20035;-44
2021/01/22 06:10:39;;;;;;;0.50;0.50;;;18.20;68.90;;;;;;5087794;28;20040;-45
2021/01/22 06:13:07;;;;;;;0.47;0.47;;;18.20;68.40;;;;;;5085648;28;22255;-43
2021/01/22 06:15:34;;;;;;;0.95;0.70;;;18.20;68.80;;;;;;5084270;28;20089;-41
2021/01/22 06:17:59;;;;;;;0.65;0.60;;;18.10;69.00;;;;;;5088553;28;20024;-45
2021/01/22 06:20:25;;;;;;;0.80;0.80;;;18.10;69.20;;;;;;5071969;28;20031;-43
2021/01/22 06:23:13;;;;;;;0.70;0.60;;;18.10;69.60;;;;;;5090048;28;20508;-45
2021/01/22 06:25:40;;;;;;;1.02;0.45;;;18.20;70.30;;;;;;5086616;28;20690;-43
2021/01/22 06:28:06;;;;;;;0.77;0.77;;;18.10;69.50;;;;;;5086563;28;20035;-44
2021/01/22 06:30:35;;;;;;;0.95;0.57;;;18.10;69.40;;;;;;5091269;28;20031;-43
2021/01/22 06:33:03;;;;;;;0.65;0.50;;;18.10;69.20;;;;;;4727983;28;9999622;-39
2021/01/22 06:35:29;;;;;;;0.55;0.55;;;18.10;69.30;;;;;;5083335;28;20024;-42
2021/01/22 06:37:56;;;;;;;0.57;0.50;;;18.10;69.40;;;;;;5086046;28;20131;-44
2021/01/22 06:40:22;;;;;;;0.88;0.63;;;18.10;69.40;;;;;;5085331;28;20485;-42
2021/01/22 06:42:47;;;;;;;0.50;0.50;;;18.10;69.10;;;;;;5086308;28;20105;-39
2021/01/22 06:45:13;;;;;;;1.95;0.90;;;18.10;69.60;;;;;;5084954;28;20374;-44
2021/01/22 06:47:39;;;;;;;0.55;0.50;;;18.10;70.40;;;;;;5085676;28;20029;-44
2021/01/22 06:50:19;;;;;;;0.50;0.50;;;18.10;69.30;;;;;;5084976;28;20024;-42
2021/01/22 06:53:02;;;;;;;0.40;0.40;;;18.20;69.60;;;;;;5084078;28;20020;-43
2021/01/22 06:55:28;;;;;;;0.60;0.60;;;18.20;68.10;;;;;;5086598;28;20086;-42
2021/01/22 06:58:21;;;;;;;0.60;0.57;;;18.20;68.70;;;;;;5068630;28;20457;-42
2021/01/22 07:00:47;;;;;;;0.50;0.50;;;18.20;68.60;;;;;;5085638;28;20028;-42
2021/01/22 07:03:34;;;;;;;0.60;0.50;;;18.20;68.50;;;;;;5086251;28;20115;-43
2021/01/22 07:06:00;;;;;;;0.60;0.60;;;18.20;68.50;;;;;;5082500;28;20060;-40
2021/01/22 07:08:57;;;;;;;0.68;0.68;;;18.10;69.20;;;;;;5085058;28;20077;-43
2021/01/22 07:11:25;;;;;;;0.70;0.70;;;18.10;69.20;;;;;;5091396;28;20062;-45
2021/01/22 07:13:54;;;;;;;0.75;0.75;;;18.10;69.40;;;;;;5091637;28;20063;-44
2021/01/22 07:16:19;;;;;;;0.50;0.50;;;18.00;69.20;;;;;;5090791;28;20081;-44
2021/01/22 07:18:48;;;;;;;0.85;0.70;;;18.00;69.70;;;;;;5077615;28;20036;-42
2021/01/22 07:21:30;;;;;;;3.83;0.70;;;18.00;69.90;;;;;;5092294;28;20097;-42
2021/01/22 07:23:57;;;;;;;3.38;0.85;;;18.00;69.10;;;;;;5090321;28;20123;-44
2021/01/22 07:26:37;;;;;;;6.72;0.95;;;18.00;69.30;;;;;;5090226;28;20486;-40
2021/01/22 07:29:19;;;;;;;1.33;0.85;;;18.00;69.30;;;;;;5082925;28;20077;-43
2021/01/22 07:31:51;;;;;;;0.70;0.60;;;18.00;69.70;;;;;;5090361;28;20028;-43
2021/01/22 07:34:36;;;;;;;0.50;0.50;;;18.00;69.10;;;;;;5083039;28;20063;-43
2021/01/22 07:37:05;;;;;;;0.50;0.50;;;18.00;68.70;;;;;;5078861;28;20016;-45
2021/01/22 07:39:31;;;;;;;1.10;0.68;;;18.00;69.30;;;;;;5066438;28;20126;-43
2021/01/22 07:42:27;;;;;;;0.52;0.52;;;18.10;69.30;;;;;;5064384;28;20557;-43
2021/01/22 07:44:53;;;;;;;2.88;0.60;;;18.00;69.20;;;;;;5062557;28;20040;-42
2021/01/22 07:47:32;;;;;;;0.70;0.50;;;18.00;69.00;;;;;;5063836;28;20489;-42
2021/01/22 07:50:00;;;;;;;0.60;0.60;;;18.00;69.20;;;;;;5075357;28;20040;-29
2021/01/22 07:52:25;;;;;;;0.60;0.60;;;18.00;69.00;;;;;;5069797;28;20120;-34
2021/01/22 07:54:51;;;;;;;0.70;0.40;;;17.90;69.20;;;;;;5067374;28;20126;-41
2021/01/22 07:57:21;;;;;;;3.17;0.70;;;17.90;68.70;;;;;;5071447;28;20077;-31
2021/01/22 07:59:47;;;;;;;0.60;0.60;;;17.90;69.10;;;;;;5068404;28;20095;-39
2021/01/22 08:02:14;;;;;;;0.60;0.60;;;18.00;68.90;;;;;;5070523;28;20051;-37
2021/01/22 08:04:40;;;;;;;0.50;0.50;;;18.00;69.20;;;;;;5069137;28;20135;-41
2021/01/22 08:07:05;;;;;;;1.95;0.70;;;18.00;68.30;;;;;;5071460;28;20044;-51
2021/01/22 08:09:31;;;;;;;0.63;0.50;;;17.90;68.50;;;;;;5071567;28;20118;-38
2021/01/22 08:12:10;;;;;;;0.82;0.60;;;17.90;68.50;;;;;;5069567;28;20094;-42
2021/01/22 08:14:36;;;;;;;2.15;0.77;;;17.90;68.80;;;;;;5070277;28;20047;-43
2021/01/22 08:17:05;;;;;;;4.38;0.50;;;17.90;68.80;;;;;;5067681;28;20032;-42
2021/01/22 08:19:31;;;;;;;1.35;0.45;;;17.90;68.70;;;;;;5069676;28;20119;-40
2021/01/22 08:21:57;;;;;;;1.73;0.65;;;17.80;68.30;;;;;;5073412;28;20077;-42
2021/01/22 08:24:23;;;;;;;0.70;0.50;;;17.80;68.90;;;;;;5066753;28;20461;-39
2021/01/22 08:27:03;;;;;;;0.50;0.50;;;17.80;68.20;;;;;;5066881;28;20060;-42
2021/01/22 08:29:29;;;;;;;0.65;0.52;;;17.80;68.20;;;;;;5071776;28;20037;-35
2021/01/22 08:31:55;;;;;;;1.55;0.70;;;17.80;68.10;;;;;;5067781;28;20643;-44
2021/01/22 08:34:21;;;;;;;3.30;0.52;;;17.80;68.10;;;;;;5060849;28;20083;-43
2021/01/22 08:36:47;;;;;;;0.60;0.60;;;17.80;68.10;;;;;;5058932;28;21098;-42
2021/01/22 08:39:12;;;;;;;2.67;0.70;;;17.80;68.30;;;;;;5069674;28;20528;-43
2021/01/22 08:41:38;;;;;;;0.60;0.60;;;17.80;67.80;;;;;;5072154;28;20032;-43
2021/01/22 08:44:03;;;;;;;0.70;0.50;;;17.80;67.50;;;;;;5071395;28;20036;-46
2021/01/22 08:46:29;;;;;;;0.50;0.50;;;17.80;68.10;;;;;;5068936;28;20455;-43
2021/01/22 08:48:55;;;;;;;0.75;0.60;;;17.80;67.60;;;;;;5068799;28;20039;-43
2021/01/22 08:51:28;;;;;;;0.40;0.40;;;17.80;67.40;;;;;;5068113;28;20502;-43
2021/01/22 08:53:54;;;;;;;0.98;0.57;;;17.80;67.40;;;;;;5071244;28;20047;-45
2021/01/22 08:56:21;;;;;;;0.50;0.50;;;17.80;67.40;;;;;;5069605;28;20024;-38
2021/01/22 08:59:06;;;;;;;0.57;0.43;;;17.90;68.00;;;;;;5069492;28;20036;-40
2021/01/22 09:01:53;;;;;;;0.50;0.50;;;17.90;67.10;;;;;;5070849;28;20043;-41
2021/01/22 09:04:25;;;;;;;0.50;0.47;;;17.90;67.00;;;;;;5067736;28;20474;-42
2021/01/22 09:06:58;;;;;;;4.68;0.90;;;17.90;67.20;;;;;;5067440;28;20031;-42
2021/01/22 09:09:42;;;;;;;0.60;0.50;;;17.90;67.20;;;;;;5072084;28;20028;-39
2021/01/22 09:12:14;;;;;;;1.73;0.50;;;18.00;67.00;;;;;;5069264;28;20033;-38
2021/01/22 09:14:46;;;;;;;0.65;0.63;;;18.00;66.70;;;;;;5069586;28;20060;-42
2021/01/22 09:17:35;;;;;;;0.55;0.55;;;17.90;67.40;;;;;;5070210;28;20047;-42
2021/01/22 09:20:21;;;;;;;0.70;0.50;;;17.90;66.50;;;;;;5068293;28;20036;-45
2021/01/22 09:22:48;;;;;;;0.40;0.40;;;18.00;66.60;;;;;;5068477;28;20060;-43
2021/01/22 09:25:15;;;;;;;0.50;0.47;;;18.00;66.60;;;;;;5070694;28;20020;-50
2021/01/22 09:27:41;;;;;;;1.95;0.80;;;18.00;66.30;;;;;;5069953;28;20436;-44
2021/01/22 09:30:12;;;;;;;1.05;0.60;;;18.00;66.40;;;;;;5069756;28;20024;-47
2021/01/22 09:32:38;;;;;;;0.50;0.50;;;18.00;66.30;;;;;;5066838;28;20093;-43
2021/01/22 09:35:05;;;;;;;0.57;0.57;;;18.00;66.20;;;;;;5071896;28;20102;-41
2021/01/22 09:37:30;;;;;;;0.50;0.50;;;18.10;66.20;;;;;;5067497;28;20060;-45
2021/01/22 09:39:56;;;;;;;0.40;0.40;;;18.10;66.10;;;;;;5069546;28;20047;-35
2021/01/22 09:42:21;;;;;;;0.93;0.77;;;18.10;66.20;;;;;;5071773;28;20058;-44
2021/01/22 09:44:47;;;;;;;0.45;0.40;;;18.20;66.30;;;;;;5072823;28;20039;-42
2021/01/22 09:47:13;;;;;;;0.57;0.57;;;18.20;66.10;;;;;;5068866;28;20024;-45
2021/01/22 09:49:38;;;;;;;0.57;0.50;;;18.20;66.10;;;;;;5069701;28;20044;-39
2021/01/22 09:52:04;;;;;;;0.60;0.60;;;18.30;66.20;;;;;;5065725;28;20075;-30
2021/01/22 09:54:30;;;;;;;0.63;0.50;;;18.30;66.00;;;;;;5071717;28;20042;-39
2021/01/22 09:56:55;;;;;;;0.60;0.60;;;18.40;66.00;;;;;;5070368;28;20032;-39
2021/01/22 09:59:21;;;;;;;0.45;0.45;;;18.40;65.80;;;;;;5070019;28;20127;-43
2021/01/22 10:01:47;;;;;;;0.60;0.60;;;18.50;65.70;;;;;;5068537;28;20610;-39
2021/01/22 10:04:13;;;;;;;0.55;0.40;;;18.50;65.70;;;;;;5068948;28;20040;-42
2021/01/22 10:06:38;;;;;;;0.68;0.52;;;18.50;65.90;;;;;;5064471;28;20039;-42
2021/01/22 10:09:04;;;;;;;0.77;0.60;;;18.50;65.80;;;;;;5069474;28;20501;-43
2021/01/22 10:11:30;;;;;;;0.75;0.60;;;18.60;65.80;;;;;;5067871;28;20028;-44
2021/01/22 10:13:56;;;;;;;0.60;0.60;;;18.60;65.60;;;;;;5071386;28;20081;-40
2021/01/22 10:16:23;;;;;;;0.75;0.60;;;18.60;65.70;;;;;;5067925;28;20162;-45
2021/01/22 10:18:52;;;;;;;0.43;0.43;;;18.60;65.40;;;;;;5067948;28;20037;-34
2021/01/22 10:21:18;;;;;;;0.45;0.45;;;18.70;65.50;;;;;;5066193;28;20063;-50
2021/01/22 10:23:47;;;;;;;0.80;0.60;;;18.70;65.50;;;;;;5067984;28;20151;-46
2021/01/22 10:26:13;;;;;;;0.60;0.60;;;18.60;65.40;;;;;;5065369;28;20032;-40
2021/01/22 10:28:38;;;;;;;0.60;0.55;;;18.70;65.60;;;;;;5067298;28;20382;-44
2021/01/22 10:31:04;;;;;;;0.50;0.50;;;18.70;65.70;;;;;;5067845;28;20035;-45
2021/01/22 10:33:29;;;;;;;0.60;0.60;;;18.60;65.40;;;;;;5062942;28;20080;-36
2021/01/22 10:35:55;;;;;;;2.15;0.80;;;18.60;65.30;;;;;;5057822;28;21102;-44
2021/01/22 10:38:20;;;;;;;1.15;1.05;;;18.60;66.10;;;;;;5058860;28;20040;-41
2021/01/22 10:40:46;;;;;;;3.10;1.30;;;18.70;65.30;;;;;;5062864;28;20040;-36
2021/01/22 10:43:12;;;;;;;1.23;1.08;;;18.70;65.20;;;;;;5060738;28;20048;-43
2021/01/22 10:45:37;;;;;;;1.50;1.13;;;18.70;65.00;;;;;;5062389;28;20029;-40
2021/01/22 10:48:03;;;;;;;0.90;0.90;;;18.70;65.00;;;;;;5062798;28;20039;-43
2021/01/22 10:50:29;;;;;;;0.70;0.70;;;18.70;64.70;;;;;;5063993;28;20028;-40
2021/01/22 10:52:54;;;;;;;0.95;0.85;;;18.80;64.40;;;;;;5062129;28;20083;-42
2021/01/22 10:55:20;;;;;;;0.85;0.80;;;18.80;64.20;;;;;;5062734;28;20665;-46
2021/01/22 10:57:46;;;;;;;1.17;1.00;;;18.80;64.20;;;;;;5061133;28;20091;-41
2021/01/22 11:00:12;;;;;;;1.42;1.33;;;18.90;64.20;;;;;;5063470;28;20197;-37
2021/01/22 11:02:37;;;;;;;1.00;1.00;;;18.90;64.10;;;;;;5058981;28;20097;-44
2021/01/22 11:05:03;;;;;;;1.20;1.10;;;18.90;64.00;;;;;;5062758;28;20036;-50
2021/01/22 11:07:29;;;;;;;1.20;1.10;;;18.90;63.70;;;;;;5060371;28;20872;-39
2021/01/22 11:09:55;;;;;;;1.05;1.02;;;18.90;63.50;;;;;;5061747;28;20093;-41
2021/01/22 11:12:20;;;;;;;1.33;1.23;;;19.00;63.60;;;;;;5061941;28;20045;-50
2021/01/22 11:14:47;;;;;;;1.30;1.00;;;19.00;63.60;;;;;;5062529;28;20931;-39
2021/01/22 11:17:13;;;;;;;0.90;0.90;;;19.10;63.60;;;;;;5061181;28;20123;-45
2021/01/22 11:19:38;;;;;;;0.82;0.80;;;19.00;63.30;;;;;;5063034;28;20474;-42
2021/01/22 11:22:04;;;;;;;1.20;1.10;;;19.10;63.30;;;;;;5062609;28;20047;-41
2021/01/22 11:24:29;;;;;;;0.85;0.85;;;19.10;63.20;;;;;;5062763;28;20060;-45
2021/01/22 11:26:55;;;;;;;2.13;2.03;;;19.10;63.40;;;;;;4709536;28;10000848;-46
2021/01/22 11:29:21;;;;;;;1.88;1.77;;;19.10;63.80;;;;;;5059332;28;20430;-44
2021/01/22 11:31:46;;;;;;;2.35;2.20;;;19.10;64.30;;;;;;5066373;28;20040;-40
2021/01/22 11:34:12;;;;;;;2.50;2.33;;;19.20;63.40;;;;;;5073092;28;20782;-43
2021/01/22 11:36:37;;;;;;;2.63;2.47;;;19.00;63.90;;;;;;5071239;28;20896;-41
2021/01/22 11:39:03;;;;;;;3.05;2.85;;;19.00;64.10;;;;;;5069565;28;20045;-42
2021/01/22 11:41:29;;;;;;;3.28;3.08;;;19.00;64.40;;;;;;5070661;28;20060;-43
2021/01/22 11:43:54;;;;;;;3.30;3.03;;;19.10;64.20;;;;;;5070885;28;20051;-52
2021/01/22 11:46:21;;;;;;;3.63;3.35;;;19.10;64.20;;;;;;5070039;28;20571;-45
2021/01/22 11:48:47;;;;;;;3.70;3.20;;;19.10;64.30;;;;;;5068612;28;20032;-45
2021/01/22 11:51:14;;;;;;;3.95;3.53;;;19.10;64.20;;;;;;5068359;28;20414;-45
2021/01/22 11:53:40;;;;;;;4.03;3.80;;;19.10;64.40;;;;;;5070759;28;20082;-42
2021/01/22 11:56:06;;;;;;;3.75;3.55;;;19.20;64.40;;;;;;5067659;28;20035;-35
2021/01/22 11:58:31;;;;;;;4.20;3.80;;;19.10;64.30;;;;;;5069692;28;20501;-44
2021/01/22 12:00:57;;;;;;;4.00;3.70;;;19.20;64.30;;;;;;5067717;28;20525;-44
2021/01/22 12:03:24;;;;;;;3.60;3.40;;;19.20;64.40;;;;;;5072513;28;20040;-48
2021/01/22 12:05:50;;;;;;;4.05;3.78;;;19.20;64.60;;;;;;5068674;28;20028;-45
2021/01/22 12:08:15;;;;;;;4.65;4.25;;;19.20;64.40;;;;;;5065171;28;20039;-43
2021/01/22 12:10:41;;;;;;;3.72;3.42;;;19.20;64.50;;;;;;5068114;28;20028;-52
2021/01/22 12:13:06;;;;;;;3.97;3.67;;;19.30;64.30;;;;;;5066665;28;20070;-35
2021/01/22 12:15:32;;;;;;;4.18;3.97;;;19.30;64.30;;;;;;5071043;28;20016;-33
2021/01/22 12:17:57;;;;;;;4.50;4.05;;;19.30;64.00;;;;;;5069070;28;20529;-43
2021/01/22 12:20:23;;;;;;;4.25;3.85;;;19.40;64.20;;;;;;5067232;28;20024;-38
2021/01/22 12:22:49;;;;;;;4.20;4.00;;;19.40;64.20;;;;;;5066935;28;20047;-45
2021/01/22 12:25:15;;;;;;;4.00;3.70;;;19.40;64.00;;;;;;5068647;28;20027;-48
2021/01/22 12:27:40;;;;;;;4.45;4.15;;;19.40;63.90;;;;;;5065988;28;20033;-36
2021/01/22 12:30:06;;;;;;;4.68;4.28;;;19.40;63.90;;;;;;5066775;28;20234;-44
2021/01/22 12:32:32;;;;;;;3.55;3.30;;;19.50;63.90;;;;;;5070045;28;20278;-46
2021/01/22 12:34:58;;;;;;;4.22;3.92;;;19.40;63.80;;;;;;5071544;28;20413;-40
2021/01/22 12:37:23;;;;;;;3.58;3.28;;;19.50;63.90;;;;;;5069201;28;20089;-42
2021/01/22 12:39:49;;;;;;;3.92;3.63;;;19.50;63.90;;;;;;5071514;28;20032;-46
2021/01/22 12:42:14;;;;;;;4.18;3.00;;;19.40;63.80;;;;;;5075193;28;20036;-45
2021/01/22 12:44:40;;;;;;;3.40;3.20;;;19.40;63.80;;;;;;5070483;28;20661;-45
2021/01/22 12:47:06;;;;;;;3.65;3.35;;;19.40;64.00;;;;;;5068664;28;20595;-42
2021/01/22 12:49:31;;;;;;;3.17;2.97;;;19.40;64.10;;;;;;5070578;28;20044;-35